Search for airport 
image banner adimage banner adimage banner ad
image banner ad

0PA9 - Carson

Located in Perkasie, United States

ICAO - 0PA9, IATA -

Data provided by Airmate  

General information

Coordinates: N40°20'0" W75°12'59"
Elevation is 415 feet MSL.
Magnetic variation is -12° East
View others Airports in Pennsylvania

Operational data

Special qualification required
Current time UTC:
Current local time:
Weather at : KDYL - Doylestown ( 8 km )
METAR: KDYL 291454Z AUTO VRB06KT 10SM FEW019 BKN038 OVC048 24/18 A2999 RMK AO2 SLP150 T02390183 58008
View NOTAMs / SUP AIP / TFR affecting this airport [VIEW]
Communications frequencies: [VIEW]

Runways:

Airport contact information

Address: Perkasie United States

Satellite view of 0PA9